createdAt,value
2023-02-21T00:00:30.350Z,21.70
2023-02-21T00:01:30.330Z,21.10
2023-02-21T00:02:30.348Z,19.50
2023-02-21T00:03:31.238Z,18.50
2023-02-21T00:04:30.341Z,18.00
2023-02-21T00:05:30.375Z,18.70
2023-02-21T00:06:30.350Z,22.40
2023-02-21T00:07:30.313Z,20.10
2023-02-21T00:08:30.334Z,20.70
2023-02-21T00:09:30.291Z,19.00
2023-02-21T00:10:30.290Z,22.40
2023-02-21T00:11:30.294Z,21.90
2023-02-21T00:12:30.275Z,22.60
2023-02-21T00:13:30.266Z,24.10
2023-02-21T00:14:31.236Z,20.20
2023-02-21T00:15:30.266Z,24.50
2023-02-21T00:16:30.272Z,22.10
2023-02-21T00:17:30.255Z,22.30
2023-02-21T00:18:30.238Z,21.50
2023-02-21T00:19:30.292Z,21.00
2023-02-21T00:20:30.288Z,23.30
2023-02-21T00:21:30.258Z,24.30
2023-02-21T00:22:30.224Z,22.90
2023-02-21T00:23:30.798Z,23.30
2023-02-21T00:24:30.218Z,21.90
2023-02-21T00:25:30.235Z,22.00
2023-02-21T00:26:30.247Z,22.80
2023-02-21T00:27:30.218Z,22.70
2023-02-21T00:28:30.201Z,21.90
2023-02-21T00:29:30.189Z,18.40
2023-02-21T00:30:30.353Z,23.30
2023-02-21T00:31:30.221Z,20.00
2023-02-21T00:32:30.252Z,21.30
2023-02-21T00:33:30.829Z,21.80
2023-02-21T00:34:30.273Z,23.00
2023-02-21T00:35:30.188Z,21.50
2023-02-21T00:36:30.147Z,24.10
2023-02-21T00:37:30.152Z,22.40
2023-02-21T00:38:30.143Z,21.30
2023-02-21T00:39:30.098Z,22.00
2023-02-21T00:40:30.136Z,22.70
2023-02-21T00:41:30.117Z,23.20
2023-02-21T00:42:30.129Z,24.60
2023-02-21T00:43:30.087Z,25.60
2023-02-21T00:44:30.093Z,27.00
2023-02-21T00:45:30.118Z,22.70
2023-02-21T00:46:30.097Z,24.80
2023-02-21T00:47:30.082Z,24.80
2023-02-21T00:48:30.069Z,24.80
2023-02-21T00:49:30.054Z,23.90
2023-02-21T00:50:30.116Z,26.00
2023-02-21T00:51:30.060Z,25.80
2023-02-21T00:52:30.031Z,24.30
2023-02-21T00:53:30.037Z,26.20
2023-02-21T00:54:30.051Z,24.00
2023-02-21T00:55:30.024Z,22.90
2023-02-21T00:56:30.075Z,26.10
2023-02-21T00:57:30.015Z,24.10
2023-02-21T00:58:30.055Z,26.10
2023-02-21T00:59:29.990Z,23.90
2023-02-21T01:00:30.004Z,23.50
2023-02-21T01:01:30.024Z,26.20
2023-02-21T01:02:30.732Z,25.40
2023-02-21T01:03:30.000Z,25.30
2023-02-21T01:04:29.987Z,26.20
2023-02-21T01:05:29.966Z,25.10
2023-02-21T01:06:29.994Z,25.30
2023-02-21T01:07:29.935Z,26.70
2023-02-21T01:08:31.742Z,26.10
2023-02-21T01:09:29.952Z,26.50
2023-02-21T01:10:30.936Z,27.00
2023-02-21T01:11:29.927Z,25.30
2023-02-21T01:12:29.920Z,26.20
2023-02-21T01:13:29.940Z,23.30
2023-02-21T01:14:29.905Z,23.90
2023-02-21T01:15:29.923Z,25.50
2023-02-21T01:16:29.889Z,25.00
2023-02-21T01:17:29.887Z,26.90
2023-02-21T01:18:29.936Z,23.30
2023-02-21T01:19:30.872Z,24.00
2023-02-21T01:20:29.917Z,22.80
2023-02-21T01:21:29.874Z,27.10
2023-02-21T01:22:29.892Z,24.20
2023-02-21T01:23:29.929Z,24.90
2023-02-21T01:24:29.840Z,25.20
2023-02-21T01:25:29.889Z,27.10
2023-02-21T01:26:29.842Z,27.20
2023-02-21T01:27:30.749Z,27.60
2023-02-21T01:28:29.817Z,27.30
2023-02-21T01:29:29.832Z,25.20
2023-02-21T01:30:30.733Z,26.00
2023-02-21T01:31:29.908Z,27.40
2023-02-21T01:32:29.890Z,25.60
2023-02-21T01:33:29.797Z,29.40
2023-02-21T01:34:29.770Z,26.10
2023-02-21T01:35:29.793Z,27.50
2023-02-21T01:36:29.791Z,30.40
2023-02-21T01:37:29.781Z,28.40
2023-02-21T01:38:29.799Z,28.80
2023-02-21T01:39:29.784Z,30.00
2023-02-21T01:40:29.781Z,28.40
2023-02-21T01:41:29.802Z,28.60
2023-02-21T01:42:29.729Z,29.70
2023-02-21T01:43:29.764Z,27.70
2023-02-21T01:44:29.759Z,29.30
2023-02-21T01:45:29.727Z,30.60
2023-02-21T01:46:29.815Z,29.50
2023-02-21T01:47:29.740Z,29.70
2023-02-21T01:48:29.727Z,30.40
2023-02-21T01:49:29.690Z,32.30
2023-02-21T01:50:29.694Z,33.80
2023-02-21T01:51:29.686Z,33.30
2023-02-21T01:52:29.673Z,29.60
2023-02-21T01:53:29.704Z,31.80
2023-02-21T01:54:29.656Z,33.60
2023-02-21T01:55:29.657Z,31.00
2023-02-21T01:56:29.770Z,34.40
2023-02-21T01:57:29.643Z,33.40
2023-02-21T01:58:29.673Z,31.90
2023-02-21T01:59:29.620Z,34.10
2023-02-21T02:00:29.642Z,31.20
2023-02-21T02:01:29.655Z,32.20
2023-02-21T02:02:29.664Z,32.30
2023-02-21T02:03:29.625Z,35.90
2023-02-21T02:04:29.660Z,35.20
2023-02-21T02:05:29.587Z,33.10
2023-02-21T02:06:29.637Z,33.20
2023-02-21T02:07:29.664Z,33.60
2023-02-21T02:08:29.577Z,32.20
2023-02-21T02:09:29.589Z,33.60
2023-02-21T02:10:29.579Z,34.20
2023-02-21T02:11:29.560Z,35.70
2023-02-21T02:12:29.581Z,33.50
2023-02-21T02:13:29.566Z,32.90
2023-02-21T02:14:29.539Z,33.40
2023-02-21T02:15:29.531Z,36.10
2023-02-21T02:16:29.527Z,38.10
2023-02-21T02:17:29.536Z,34.70
2023-02-21T02:18:29.545Z,33.40
2023-02-21T02:19:29.532Z,33.50
2023-02-21T02:20:29.555Z,37.00
2023-02-21T02:21:29.495Z,35.20
2023-02-21T02:22:29.487Z,33.40
2023-02-21T02:23:29.496Z,38.00
2023-02-21T02:24:29.460Z,31.50
2023-02-21T02:25:29.487Z,37.40
2023-02-21T02:26:29.522Z,33.10
2023-02-21T02:27:29.460Z,32.90
2023-02-21T02:28:29.460Z,33.60
2023-02-21T02:29:29.432Z,33.90
2023-02-21T02:30:29.500Z,32.90
2023-02-21T02:31:29.538Z,33.90
2023-02-21T02:32:29.407Z,34.90
2023-02-21T02:33:29.462Z,31.70
2023-02-21T02:34:29.416Z,34.90
2023-02-21T02:35:29.402Z,31.30
2023-02-21T02:36:29.427Z,30.60
2023-02-21T02:37:29.391Z,33.40
2023-02-21T02:38:29.406Z,33.10
2023-02-21T02:39:29.397Z,33.70
2023-02-21T02:40:29.427Z,32.30
2023-02-21T02:41:29.363Z,31.10
2023-02-21T02:42:29.395Z,30.80
2023-02-21T02:43:29.380Z,31.20
2023-02-21T02:44:29.373Z,30.50
2023-02-21T02:45:29.378Z,28.80
2023-02-21T02:46:29.460Z,32.50
2023-02-21T02:47:29.366Z,31.10
2023-02-21T02:48:29.316Z,31.60
2023-02-21T02:49:29.322Z,29.40
2023-02-21T02:50:29.291Z,31.30
2023-02-21T02:51:29.320Z,34.40
2023-02-21T02:52:29.317Z,30.70
2023-02-21T02:53:29.283Z,31.50
2023-02-21T02:54:29.285Z,31.70
2023-02-21T02:55:29.268Z,34.50
2023-02-21T02:56:29.277Z,34.40
2023-02-21T02:57:29.260Z,35.20
2023-02-21T02:58:29.272Z,33.50
2023-02-21T02:59:29.321Z,31.00
2023-02-21T03:00:29.238Z,33.80
2023-02-21T03:01:29.287Z,33.60
2023-02-21T03:02:29.244Z,33.10
2023-02-21T03:03:29.274Z,32.00
2023-02-21T03:04:29.248Z,31.10
2023-02-21T03:05:29.237Z,32.00
2023-02-21T03:06:30.239Z,33.60
2023-02-21T03:07:29.224Z,33.40
2023-02-21T03:08:29.210Z,32.50
2023-02-21T03:09:29.193Z,31.80
2023-02-21T03:10:29.211Z,32.10
2023-02-21T03:11:29.166Z,33.70
2023-02-21T03:12:29.194Z,29.90
2023-02-21T03:13:29.159Z,30.40
2023-02-21T03:14:29.189Z,31.80
2023-02-21T03:15:29.208Z,29.10
2023-02-21T03:16:29.136Z,31.70
2023-02-21T03:17:29.147Z,32.80
2023-02-21T03:18:29.127Z,31.80
2023-02-21T03:19:29.123Z,32.40
2023-02-21T03:20:29.175Z,30.30
2023-02-21T03:21:29.129Z,33.10
2023-02-21T03:22:29.115Z,31.60
2023-02-21T03:23:29.115Z,30.90
2023-02-21T03:24:29.096Z,38.90
2023-02-21T03:25:29.160Z,33.90
2023-02-21T03:26:29.086Z,33.50
2023-02-21T03:27:29.092Z,34.30
2023-02-21T03:28:29.095Z,33.70
2023-02-21T03:29:29.063Z,35.50
2023-02-21T03:30:29.105Z,32.70
2023-02-21T03:31:29.220Z,34.50
2023-02-21T03:32:29.087Z,34.20
2023-02-21T03:33:29.079Z,36.10
2023-02-21T03:34:30.079Z,34.80
2023-02-21T03:35:29.040Z,36.20
2023-02-21T03:36:29.061Z,36.70
2023-02-21T03:37:29.048Z,37.40
2023-02-21T03:38:29.036Z,36.80
2023-02-21T03:39:29.030Z,37.40
2023-02-21T03:40:29.019Z,39.70
2023-02-21T03:41:29.051Z,36.60
2023-02-21T03:42:29.036Z,37.40
2023-02-21T03:43:29.025Z,35.80
2023-02-21T03:44:28.976Z,37.50
2023-02-21T03:45:29.031Z,36.50
2023-02-21T03:46:29.006Z,37.90
2023-02-21T03:47:28.968Z,39.40
2023-02-21T03:48:32.346Z,38.80
2023-02-21T03:49:30.003Z,39.30
2023-02-21T03:50:28.979Z,41.20
2023-02-21T03:51:28.975Z,40.70
2023-02-21T03:52:28.955Z,41.40
2023-02-21T03:53:28.945Z,39.80
2023-02-21T03:54:28.988Z,40.00
2023-02-21T03:55:28.953Z,43.30
2023-02-21T03:56:41.172Z,37.80
2023-02-21T03:57:30.945Z,41.60
2023-02-21T03:58:28.928Z,38.70
2023-02-21T03:59:29.787Z,38.90
2023-02-21T04:00:28.913Z,39.70
2023-02-21T04:01:28.883Z,40.30
2023-02-21T04:02:28.931Z,40.30
2023-02-21T04:03:28.905Z,41.50
2023-02-21T04:04:28.920Z,42.20
2023-02-21T04:05:28.895Z,38.10
2023-02-21T04:06:28.875Z,40.70
2023-02-21T04:07:28.882Z,41.60
2023-02-21T04:08:29.729Z,36.20
2023-02-21T04:09:28.920Z,39.00
2023-02-21T04:10:28.837Z,38.60
2023-02-21T04:11:28.862Z,38.60
2023-02-21T04:12:28.891Z,39.90
2023-02-21T04:13:28.849Z,40.70
2023-02-21T04:14:28.822Z,40.50
2023-02-21T04:15:28.827Z,40.20
2023-02-21T04:16:28.925Z,43.60
2023-02-21T04:17:28.859Z,43.80
2023-02-21T04:18:28.796Z,42.40
2023-02-21T04:19:29.725Z,44.70
2023-02-21T04:20:28.822Z,43.60
2023-02-21T04:21:28.807Z,42.60
2023-02-21T04:22:28.792Z,44.20
2023-02-21T04:23:28.776Z,40.50
2023-02-21T04:24:28.787Z,43.60
2023-02-21T04:25:28.759Z,45.10
2023-02-21T04:26:28.748Z,45.10
2023-02-21T04:27:28.739Z,46.60
2023-02-21T04:28:29.768Z,45.10
2023-02-21T04:29:28.732Z,45.60
2023-02-21T04:30:28.857Z,43.60
2023-02-21T04:31:28.792Z,44.50
2023-02-21T04:32:28.744Z,48.20
2023-02-21T04:33:28.720Z,45.60
2023-02-21T04:34:28.751Z,45.50
2023-02-21T04:35:28.715Z,48.30
2023-02-21T04:36:28.681Z,46.00
2023-02-21T04:37:28.725Z,47.20
2023-02-21T04:38:28.684Z,44.90
2023-02-21T04:39:28.681Z,49.60
2023-02-21T04:40:28.716Z,44.10
2023-02-21T04:41:28.716Z,45.20
2023-02-21T04:42:28.671Z,46.20
2023-02-21T04:43:28.690Z,47.30
2023-02-21T04:44:28.710Z,46.30
2023-02-21T04:45:28.699Z,45.60
2023-02-21T04:46:28.642Z,47.30
2023-02-21T04:47:28.634Z,44.30
2023-02-21T04:48:28.619Z,45.70
2023-02-21T04:49:28.663Z,45.60
2023-02-21T04:50:28.649Z,45.80
2023-02-21T04:51:28.627Z,47.20
2023-02-21T04:52:28.612Z,47.20
2023-02-21T04:53:28.599Z,45.60
2023-02-21T04:54:28.609Z,47.60
2023-02-21T04:55:28.611Z,47.50
2023-02-21T04:56:28.642Z,48.70
2023-02-21T04:57:28.598Z,47.70
2023-02-21T04:58:31.182Z,44.70
2023-02-21T04:59:30.690Z,45.40
2023-02-21T05:00:28.581Z,45.20
2023-02-21T05:01:28.626Z,45.30
2023-02-21T05:02:28.570Z,48.20
2023-02-21T05:03:28.590Z,46.10
2023-02-21T05:04:28.637Z,47.10
2023-02-21T05:05:28.602Z,50.10
2023-02-21T05:06:28.532Z,48.00
2023-02-21T05:07:28.536Z,52.80
2023-02-21T05:08:28.858Z,47.40
2023-02-21T05:09:29.523Z,46.20
2023-02-21T05:10:43.568Z,46.00
2023-02-21T05:11:30.522Z,48.70
2023-02-21T05:12:28.544Z,45.50
2023-02-21T05:13:28.539Z,42.00
2023-02-21T05:14:29.236Z,42.10
2023-02-21T05:15:28.530Z,43.10
2023-02-21T05:16:28.546Z,43.00
2023-02-21T05:17:28.472Z,45.20
2023-02-21T05:18:28.511Z,41.30
2023-02-21T05:19:28.481Z,43.90
2023-02-21T05:20:28.458Z,41.10
2023-02-21T05:21:28.445Z,41.80
2023-02-21T05:22:28.460Z,43.60
2023-02-21T05:23:28.465Z,42.80
2023-02-21T05:24:28.440Z,41.10
2023-02-21T05:25:28.446Z,40.10
2023-02-21T05:26:28.412Z,43.50
2023-02-21T05:27:28.408Z,40.20
2023-02-21T05:28:28.448Z,39.90
2023-02-21T05:29:28.408Z,41.80
2023-02-21T05:30:28.485Z,42.70
2023-02-21T05:31:29.507Z,41.70
2023-02-21T05:32:29.307Z,43.80
2023-02-21T05:33:28.393Z,38.40
2023-02-21T05:34:28.382Z,42.20
2023-02-21T05:35:28.367Z,46.20
2023-02-21T05:36:28.353Z,42.90
2023-02-21T05:37:31.282Z,42.70
2023-02-21T05:38:29.409Z,40.40
2023-02-21T05:39:28.394Z,44.50
2023-02-21T05:40:28.362Z,42.20
2023-02-21T05:41:28.366Z,44.00
2023-02-21T05:42:28.364Z,44.70
2023-02-21T05:43:29.209Z,41.70
2023-02-21T05:44:29.335Z,45.30
2023-02-21T05:45:28.320Z,41.60
2023-02-21T05:46:28.316Z,44.30
2023-02-21T05:47:28.299Z,44.30
2023-02-21T05:48:29.320Z,47.90
2023-02-21T05:49:28.362Z,43.00
2023-02-21T05:50:28.312Z,42.80
2023-02-21T05:51:28.262Z,41.60
2023-02-21T05:52:28.297Z,43.70
2023-02-21T05:53:28.320Z,39.80
2023-02-21T05:54:28.272Z,42.80
2023-02-21T05:55:28.292Z,40.40
2023-02-21T05:56:28.281Z,42.20
2023-02-21T05:57:28.301Z,42.90
2023-02-21T05:58:28.260Z,42.60
2023-02-21T05:59:28.248Z,42.10
2023-02-21T06:00:28.245Z,47.80
2023-02-21T06:01:28.250Z,42.40
2023-02-21T06:02:29.288Z,42.50
2023-02-21T06:03:28.801Z,43.90
2023-02-21T06:04:28.202Z,43.10
2023-02-21T06:05:28.243Z,45.00
2023-02-21T06:06:28.196Z,43.20
2023-02-21T06:07:28.165Z,39.40
2023-02-21T06:08:28.164Z,41.30
2023-02-21T06:09:28.184Z,43.70
2023-02-21T06:10:28.171Z,44.50
2023-02-21T06:11:29.200Z,40.70
2023-02-21T06:12:28.175Z,42.60
2023-02-21T06:13:28.132Z,43.80
2023-02-21T06:14:28.173Z,43.10
2023-02-21T06:15:28.133Z,41.10
2023-02-21T06:16:28.184Z,43.90
2023-02-21T06:17:28.122Z,39.70
2023-02-21T06:18:28.130Z,41.00
2023-02-21T06:19:28.151Z,43.90
2023-02-21T06:20:28.121Z,41.70
2023-02-21T06:21:28.168Z,48.80
2023-02-21T06:22:28.754Z,45.90
2023-02-21T06:23:28.124Z,42.10
2023-02-21T06:24:28.216Z,45.40
2023-02-21T06:25:28.104Z,45.70
2023-02-21T06:26:28.121Z,44.80
2023-02-21T06:27:28.175Z,43.20
2023-02-21T06:28:28.091Z,45.40
2023-02-21T06:29:28.746Z,40.10
2023-02-21T06:30:28.182Z,46.80
2023-02-21T06:31:28.128Z,42.10
2023-02-21T06:32:28.028Z,44.20
2023-02-21T06:33:28.058Z,151.20
2023-02-21T06:34:28.020Z,45.20
2023-02-21T06:35:28.051Z,48.80
2023-02-21T06:36:28.027Z,47.10
2023-02-21T06:37:28.011Z,44.30
2023-02-21T06:38:28.009Z,43.50
2023-02-21T06:39:27.987Z,45.00
2023-02-21T06:40:28.000Z,45.50
2023-02-21T06:41:27.979Z,46.70
2023-02-21T06:42:27.984Z,82.00
2023-02-21T06:43:27.985Z,79.40
2023-02-21T06:44:28.001Z,46.60
2023-02-21T06:45:28.001Z,47.30
2023-02-21T06:46:28.035Z,46.10
2023-02-21T06:47:27.955Z,67.10
2023-02-21T06:48:27.933Z,54.10
2023-02-21T06:49:27.941Z,43.00
2023-02-21T06:50:27.922Z,46.80
2023-02-21T06:51:27.940Z,43.00
2023-02-21T06:52:27.939Z,46.00
2023-02-21T06:53:27.944Z,41.60
2023-02-21T06:54:27.950Z,44.10
2023-02-21T06:55:27.974Z,45.40
2023-02-21T06:56:27.898Z,43.40
2023-02-21T06:57:27.924Z,42.10
2023-02-21T06:58:27.896Z,41.50
2023-02-21T06:59:27.871Z,45.50
2023-02-21T07:00:27.879Z,44.70
2023-02-21T07:01:27.944Z,41.00
2023-02-21T07:02:27.874Z,43.10
2023-02-21T07:03:27.839Z,45.50
2023-02-21T07:04:27.958Z,43.60
2023-02-21T07:05:27.827Z,44.20
2023-02-21T07:06:29.702Z,44.10
2023-02-21T07:07:28.881Z,48.30
2023-02-21T07:08:27.836Z,63.50
2023-02-21T07:09:27.837Z,95.70
2023-02-21T07:10:27.792Z,55.80
2023-02-21T07:11:27.800Z,105.50
2023-02-21T07:12:27.796Z,120.60
2023-02-21T07:13:27.828Z,86.70
2023-02-21T07:14:27.805Z,64.80
2023-02-21T07:15:27.812Z,84.40
2023-02-21T07:16:27.793Z,85.50
2023-02-21T07:17:27.772Z,78.00
2023-02-21T07:18:27.783Z,63.70
2023-02-21T07:19:27.808Z,83.60
2023-02-21T07:20:27.749Z,58.60
2023-02-21T07:21:27.777Z,56.20
2023-02-21T07:22:27.748Z,74.30
2023-02-21T07:23:27.735Z,62.10
2023-02-21T07:24:27.724Z,80.60
2023-02-21T07:25:27.750Z,78.20
2023-02-21T07:26:27.746Z,84.50
2023-02-21T07:27:27.722Z,62.90
2023-02-21T07:28:27.735Z,54.60
2023-02-21T07:29:27.741Z,57.60
2023-02-21T07:30:27.782Z,77.30
2023-02-21T07:31:27.840Z,58.20
2023-02-21T07:32:27.732Z,122.70
2023-02-21T07:33:27.703Z,63.00
2023-02-21T07:34:27.673Z,71.80
2023-02-21T07:35:27.707Z,61.20
2023-02-21T07:36:27.653Z,59.20
2023-02-21T07:37:27.651Z,52.40
2023-02-21T07:38:27.655Z,62.50
2023-02-21T07:39:27.663Z,107.10
2023-02-21T07:40:27.756Z,84.20
2023-02-21T07:41:27.644Z,50.10
2023-02-21T07:42:27.640Z,49.50
2023-02-21T07:43:27.639Z,47.80
2023-02-21T07:44:27.628Z,81.70
2023-02-21T07:45:27.628Z,48.80
2023-02-21T07:46:28.267Z,67.50
2023-02-21T07:47:27.633Z,55.90
2023-02-21T07:48:27.622Z,62.10
2023-02-21T07:49:27.588Z,63.40
2023-02-21T07:50:27.609Z,63.00
2023-02-21T07:51:27.577Z,61.00
2023-02-21T07:52:27.560Z,49.20
2023-02-21T07:53:27.559Z,45.70
2023-02-21T07:54:27.543Z,49.40
2023-02-21T07:55:27.609Z,47.40
2023-02-21T07:56:27.574Z,44.60
2023-02-21T07:57:27.525Z,49.70
2023-02-21T07:58:27.535Z,45.70
2023-02-21T07:59:27.525Z,44.90
2023-02-21T08:00:27.585Z,47.70
2023-02-21T08:01:27.573Z,44.00
2023-02-21T08:02:27.506Z,44.70
2023-02-21T08:03:27.503Z,42.80
2023-02-21T08:04:27.560Z,47.00
2023-02-21T08:05:27.511Z,43.20
2023-02-21T08:06:27.471Z,42.00
2023-02-21T08:07:27.476Z,43.50
2023-02-21T08:08:27.472Z,44.00
2023-02-21T08:09:27.462Z,42.70
2023-02-21T08:10:27.444Z,42.30
2023-02-21T08:11:27.446Z,43.30
2023-02-21T08:12:27.461Z,43.50
2023-02-21T08:13:27.418Z,42.40
2023-02-21T08:14:27.871Z,41.40
2023-02-21T08:15:27.472Z,42.20
2023-02-21T08:16:27.433Z,46.10
2023-02-21T08:17:27.392Z,47.60
2023-02-21T08:18:28.429Z,42.10
2023-02-21T08:19:27.393Z,44.10
2023-02-21T08:20:27.377Z,43.80
2023-02-21T08:21:27.367Z,43.60
2023-02-21T08:22:27.355Z,43.20
2023-02-21T08:23:27.362Z,44.00
2023-02-21T08:24:27.358Z,43.50
2023-02-21T08:25:27.363Z,44.20
2023-02-21T08:26:27.336Z,44.90
2023-02-21T08:27:27.315Z,48.80
2023-02-21T08:28:27.327Z,47.70
2023-02-21T08:29:27.322Z,49.90
2023-02-21T08:30:27.497Z,46.90
2023-02-21T08:31:27.327Z,46.80
2023-02-21T08:32:27.329Z,44.30
2023-02-21T08:33:27.306Z,43.20
2023-02-21T08:34:27.298Z,46.60
2023-02-21T08:35:27.284Z,47.70
2023-02-21T08:36:27.267Z,47.30
2023-02-21T08:37:27.269Z,47.10
2023-02-21T08:38:27.252Z,46.40
2023-02-21T08:39:27.322Z,44.30
2023-02-21T08:40:27.236Z,44.50
2023-02-21T08:41:27.248Z,43.50
2023-02-21T08:42:27.241Z,43.60
2023-02-21T08:43:27.242Z,45.70
2023-02-21T08:44:27.246Z,44.30
2023-02-21T08:45:27.250Z,44.30
2023-02-21T08:46:27.257Z,48.20
2023-02-21T08:47:27.188Z,42.40
2023-02-21T08:48:27.201Z,44.90
2023-02-21T08:49:27.218Z,45.70
2023-02-21T08:50:27.183Z,45.80
2023-02-21T08:51:27.171Z,43.50
2023-02-21T08:52:27.178Z,40.40
2023-02-21T08:53:27.163Z,45.30
2023-02-21T08:54:27.169Z,44.80
2023-02-21T08:55:27.133Z,44.70
2023-02-21T08:56:27.126Z,46.20
2023-02-21T08:57:27.155Z,42.40
2023-02-21T08:58:27.245Z,42.30
2023-02-21T08:59:27.143Z,44.90
2023-02-21T09:00:27.132Z,44.50
2023-02-21T09:01:27.232Z,47.20
2023-02-21T09:02:27.148Z,47.30
2023-02-21T09:03:27.095Z,47.20
2023-02-21T09:04:27.097Z,44.40
2023-02-21T09:05:27.109Z,49.80
2023-02-21T09:06:27.075Z,45.70
2023-02-21T09:07:27.075Z,48.30
2023-02-21T09:08:27.063Z,44.40
2023-02-21T09:09:27.051Z,46.00
2023-02-21T09:10:27.102Z,42.10
2023-02-21T09:11:27.082Z,45.40
2023-02-21T09:12:27.045Z,51.10
2023-02-21T09:13:27.041Z,50.70
2023-02-21T09:14:27.030Z,43.90
2023-02-21T09:15:27.032Z,45.60
2023-02-21T09:16:27.047Z,47.10
2023-02-21T09:17:26.993Z,45.00
2023-02-21T09:18:27.065Z,42.40
2023-02-21T09:19:27.001Z,45.20
2023-02-21T09:20:27.072Z,48.20
2023-02-21T09:21:27.736Z,46.00
2023-02-21T09:22:26.974Z,51.10
2023-02-21T09:23:27.025Z,49.60
2023-02-21T09:24:26.966Z,46.70
2023-02-21T09:25:26.955Z,45.70
2023-02-21T09:26:26.978Z,46.30
2023-02-21T09:27:26.950Z,47.30
2023-02-21T09:28:26.979Z,47.60
2023-02-21T09:29:31.591Z,47.50
2023-02-21T09:30:27.952Z,44.50
2023-02-21T09:31:26.994Z,43.90
2023-02-21T09:32:26.927Z,47.30
2023-02-21T09:33:26.930Z,51.20
2023-02-21T09:34:26.925Z,52.50
2023-02-21T09:35:27.907Z,45.50
2023-02-21T09:36:26.884Z,44.80
2023-02-21T09:37:26.883Z,43.10
2023-02-21T09:38:26.885Z,46.60
2023-02-21T09:39:26.861Z,43.60
2023-02-21T09:40:26.871Z,46.00
2023-02-21T09:41:27.726Z,48.30
2023-02-21T09:42:26.855Z,42.00
2023-02-21T09:43:26.862Z,45.40
2023-02-21T09:44:26.859Z,43.00
2023-02-21T09:45:26.893Z,41.60
2023-02-21T09:46:26.845Z,44.50
2023-02-21T09:47:26.813Z,42.90
2023-02-21T09:48:26.842Z,44.60
2023-02-21T09:49:26.801Z,44.60
2023-02-21T09:50:26.802Z,45.40
2023-02-21T09:51:26.802Z,45.80
2023-02-21T09:52:27.724Z,46.60
2023-02-21T09:53:26.772Z,44.90
2023-02-21T09:54:26.771Z,46.20
2023-02-21T09:55:29.054Z,43.60
2023-02-21T09:56:26.857Z,42.80
2023-02-21T09:57:26.748Z,46.30
2023-02-21T09:58:26.732Z,42.90
2023-02-21T09:59:26.732Z,40.50
2023-02-21T10:00:26.715Z,43.80
2023-02-21T10:01:26.782Z,42.20
2023-02-21T10:02:26.721Z,44.80
2023-02-21T10:03:26.712Z,44.00
2023-02-21T10:04:26.712Z,45.30
2023-02-21T10:05:26.686Z,43.60
2023-02-21T10:06:26.696Z,43.50
2023-02-21T10:07:26.665Z,40.90
2023-02-21T10:08:26.678Z,41.70
2023-02-21T10:09:26.646Z,38.40
2023-02-21T10:10:26.678Z,41.70
2023-02-21T10:11:26.673Z,41.10
2023-02-21T10:12:26.631Z,40.40
2023-02-21T10:13:26.687Z,41.70
2023-02-21T10:14:26.626Z,42.60
2023-02-21T10:15:26.623Z,42.50
2023-02-21T10:16:26.663Z,44.40
2023-02-21T10:17:26.610Z,41.80
2023-02-21T10:18:26.606Z,42.50
2023-02-21T10:19:27.589Z,40.50
2023-02-21T10:20:26.599Z,42.10
2023-02-21T10:21:26.590Z,43.50
2023-02-21T10:22:26.631Z,44.20
2023-02-21T10:23:26.555Z,44.60
2023-02-21T10:24:26.555Z,36.50
2023-02-21T10:25:27.231Z,40.60
2023-02-21T10:26:26.549Z,43.50
2023-02-21T10:27:26.554Z,40.10
2023-02-21T10:28:26.554Z,41.70
2023-02-21T10:29:26.529Z,44.90
2023-02-21T10:30:26.676Z,41.50
2023-02-21T10:31:26.548Z,41.90
2023-02-21T10:32:26.523Z,41.20
2023-02-21T10:33:26.506Z,42.90
2023-02-21T10:34:26.489Z,40.60
2023-02-21T10:35:26.525Z,43.00
2023-02-21T10:36:26.501Z,44.40
2023-02-21T10:37:26.560Z,40.20
2023-02-21T10:38:26.522Z,39.80
2023-02-21T10:39:26.458Z,40.30
2023-02-21T10:40:26.468Z,39.90
2023-02-21T10:41:26.495Z,39.00
2023-02-21T10:42:26.457Z,36.30
2023-02-21T10:43:26.458Z,37.80
2023-02-21T10:44:26.480Z,37.20
2023-02-21T10:45:26.437Z,37.30
2023-02-21T10:46:26.446Z,38.30
2023-02-21T10:47:26.400Z,36.50
2023-02-21T10:48:26.416Z,39.80
2023-02-21T10:49:26.411Z,38.50
2023-02-21T10:50:26.388Z,39.20
2023-02-21T10:51:26.401Z,34.70
2023-02-21T10:52:26.381Z,35.30
2023-02-21T10:53:26.421Z,38.20
2023-02-21T10:54:26.397Z,33.20
2023-02-21T10:55:33.090Z,32.40
2023-02-21T10:56:28.373Z,30.20
2023-02-21T10:57:26.335Z,32.80
2023-02-21T10:58:27.246Z,33.90
2023-02-21T10:59:26.328Z,31.10
2023-02-21T11:00:26.350Z,31.90
2023-02-21T11:01:26.373Z,34.30
2023-02-21T11:02:26.333Z,34.50
2023-02-21T11:03:26.328Z,38.00
2023-02-21T11:04:26.288Z,34.90
2023-02-21T11:05:26.320Z,35.70
2023-02-21T11:06:27.977Z,40.70
2023-02-21T11:07:27.272Z,37.30
2023-02-21T11:08:26.276Z,37.70
2023-02-21T11:09:26.341Z,35.50
2023-02-21T11:10:26.297Z,30.00
2023-02-21T11:11:26.242Z,32.50
2023-02-21T11:12:26.268Z,32.60
2023-02-21T11:13:26.232Z,32.90
2023-02-21T11:14:26.291Z,29.40
2023-02-21T11:15:26.228Z,32.40
2023-02-21T11:16:26.259Z,32.80
2023-02-21T11:17:26.228Z,36.00
2023-02-21T11:18:27.215Z,32.00
2023-02-21T11:19:26.252Z,31.60
2023-02-21T11:20:26.232Z,29.20
2023-02-21T11:21:26.226Z,26.20
2023-02-21T11:22:26.225Z,29.00
2023-02-21T11:23:26.208Z,30.60
2023-02-21T11:24:26.187Z,29.70
2023-02-21T11:25:26.386Z,30.00
2023-02-21T11:26:26.195Z,33.50
2023-02-21T11:27:26.178Z,28.10
2023-02-21T11:28:26.221Z,28.40
2023-02-21T11:29:26.165Z,26.60
2023-02-21T11:30:26.182Z,26.00
2023-02-21T11:31:26.199Z,28.70
2023-02-21T11:32:26.183Z,26.00
2023-02-21T11:33:26.136Z,26.00
2023-02-21T11:34:26.148Z,26.70
2023-02-21T11:35:26.121Z,26.00
2023-02-21T11:36:26.778Z,24.40
2023-02-21T11:37:26.103Z,28.40
2023-02-21T11:38:28.369Z,23.20
2023-02-21T11:39:26.134Z,24.70
2023-02-21T11:40:26.088Z,27.00
2023-02-21T11:41:26.079Z,26.20
2023-02-21T11:42:26.085Z,23.90
2023-02-21T11:43:26.778Z,26.10
2023-02-21T11:44:26.170Z,25.30
2023-02-21T11:45:26.644Z,26.90
2023-02-21T11:46:26.073Z,25.30
2023-02-21T11:47:26.058Z,26.90
2023-02-21T11:48:26.033Z,23.00
2023-02-21T11:49:26.152Z,21.00
2023-02-21T11:50:26.043Z,21.30
2023-02-21T11:51:26.010Z,21.40
2023-02-21T11:52:27.015Z,22.20
2023-02-21T11:53:26.087Z,23.30
2023-02-21T11:54:26.023Z,24.50
2023-02-21T11:55:26.604Z,25.70
2023-02-21T11:56:26.992Z,24.00
2023-02-21T11:57:25.998Z,24.10
2023-02-21T11:58:26.100Z,26.20
2023-02-21T11:59:25.970Z,26.10
2023-02-21T12:00:27.005Z,24.90
2023-02-21T12:01:25.985Z,28.30
2023-02-21T12:02:26.785Z,27.00
2023-02-21T12:03:25.946Z,26.70
2023-02-21T12:04:25.938Z,30.30
2023-02-21T12:05:27.060Z,27.10
2023-02-21T12:06:25.921Z,27.30
2023-02-21T12:07:25.903Z,30.10
2023-02-21T12:08:26.913Z,27.10
2023-02-21T12:09:25.939Z,27.00
2023-02-21T12:10:25.907Z,29.00
2023-02-21T12:11:25.908Z,29.20
2023-02-21T12:12:25.890Z,29.00
2023-02-21T12:13:25.877Z,33.20
2023-02-21T12:14:25.929Z,29.70
2023-02-21T12:15:25.929Z,29.90
2023-02-21T12:16:25.870Z,30.50
2023-02-21T12:17:26.853Z,26.90
2023-02-21T12:18:25.873Z,30.80
2023-02-21T12:19:25.860Z,28.50
2023-02-21T12:20:25.882Z,29.30
2023-02-21T12:21:25.844Z,29.30
2023-02-21T12:22:27.611Z,27.10
2023-02-21T12:23:25.850Z,32.30
2023-02-21T12:24:25.810Z,28.70
2023-02-21T12:25:25.843Z,33.20
2023-02-21T12:26:25.806Z,31.70
2023-02-21T12:27:25.797Z,30.00
2023-02-21T12:28:25.806Z,31.30
2023-02-21T12:29:25.845Z,31.30
2023-02-21T12:30:25.842Z,29.40
2023-02-21T12:31:25.891Z,27.90
2023-02-21T12:32:25.838Z,28.40
2023-02-21T12:33:26.205Z,28.10
2023-02-21T12:34:26.799Z,28.60
2023-02-21T12:35:25.778Z,28.90
2023-02-21T12:36:25.780Z,30.80
2023-02-21T12:37:25.765Z,32.10
2023-02-21T12:38:25.734Z,31.20
2023-02-21T12:39:25.764Z,28.30
2023-02-21T12:40:25.785Z,30.10
2023-02-21T12:41:25.733Z,31.50
2023-02-21T12:42:25.738Z,28.30
2023-02-21T12:43:25.726Z,31.10
2023-02-21T12:44:25.704Z,28.10
2023-02-21T12:45:25.721Z,32.10
2023-02-21T12:46:25.761Z,33.00
2023-02-21T12:47:25.710Z,29.20
2023-02-21T12:48:25.681Z,31.70
2023-02-21T12:49:25.671Z,30.80
2023-02-21T12:50:25.757Z,32.00
2023-02-21T12:51:25.684Z,28.40
2023-02-21T12:52:25.690Z,30.30